Time;durP1;ratioP1;P1;durP2;ratioP2;P2;SDS_P1;SDS_P2;PMS_P1;PMS_P2;Temp;Humidity;BMP_temperature;BMP_pressure;BME280_temperature;BME280_humidity;BME280_pressure;Samples;Min_cycle;Max_cycle;Signal;HPM_P1;HPM_P2
2021/09/27 00:02:03;;;;;;;19.47;17.00;;;;;;;18.90;70.66;96869.47;5108449;28;20435;-69
2021/09/27 00:04:29;;;;;;;19.50;15.70;;;;;;;18.96;70.27;96860.69;5101344;28;20174;-69
2021/09/27 00:06:55;;;;;;;21.17;18.00;;;;;;;19.00;70.08;96862.69;5090723;28;20447;-70
2021/09/27 00:09:20;;;;;;;20.60;16.27;;;;;;;18.97;69.96;96859.66;5092520;28;20181;-70
2021/09/27 00:11:46;;;;;;;18.23;16.20;;;;;;;18.86;70.87;96859.28;5091894;28;20202;-72
2021/09/27 00:14:12;;;;;;;19.77;16.93;;;;;;;18.85;70.83;96860.31;5090951;28;20749;-70
2021/09/27 00:16:38;;;;;;;18.90;16.50;;;;;;;18.93;70.34;96853.09;5091006;28;20231;-70
2021/09/27 00:19:03;;;;;;;18.57;15.73;;;;;;;18.87;70.66;96854.78;5094420;28;20186;-69
2021/09/27 00:21:32;;;;;;;20.00;16.47;;;;;;;18.53;72.63;96852.31;5094192;28;20426;-70
2021/09/27 00:23:58;;;;;;;19.90;16.50;;;;;;;18.80;71.06;96860.13;5094929;28;20197;-71
2021/09/27 00:26:26;;;;;;;17.33;15.23;;;;;;;18.85;70.64;96855.00;5094100;28;20477;-69
2021/09/27 00:28:51;;;;;;;19.90;15.60;;;;;;;18.68;71.42;96859.16;5094908;28;20451;-69
2021/09/27 00:31:17;;;;;;;18.60;16.00;;;;;;;18.55;71.77;96847.59;5094754;28;20424;-69
2021/09/27 00:33:43;;;;;;;19.53;16.50;;;;;;;18.65;71.58;96849.00;5092611;28;20205;-68
2021/09/27 00:36:10;;;;;;;19.80;17.10;;;;;;;18.75;71.00;96853.81;5092904;28;20197;-69
2021/09/27 00:38:35;;;;;;;19.10;15.77;;;;;;;18.75;71.07;96848.50;5094523;28;20419;-69
2021/09/27 00:41:05;;;;;;;18.90;15.87;;;;;;;18.72;71.37;96844.47;5094572;28;20506;-69
2021/09/27 00:43:34;;;;;;;18.47;15.57;;;;;;;18.71;71.15;96837.53;5088679;28;20684;-69
2021/09/27 00:46:22;;;;;;;21.03;16.63;;;;;;;18.25;73.27;96834.91;5094763;28;20424;-68
2021/09/27 00:48:50;;;;;;;19.43;15.50;;;;;;;18.67;71.25;96831.00;5094322;28;20440;-70
2021/09/27 00:51:28;;;;;;;16.73;14.83;;;;;;;18.74;70.59;96839.75;5095059;28;20934;-68
2021/09/27 00:53:57;;;;;;;21.00;15.73;;;;;;;18.73;70.47;96843.44;5093544;28;20810;-69
2021/09/27 00:56:27;;;;;;;18.90;15.90;;;;;;;18.51;71.20;96835.81;5093100;28;20412;-69
2021/09/27 00:58:53;;;;;;;19.17;15.90;;;;;;;18.61;70.65;96834.53;5092141;28;20762;-69
2021/09/27 01:01:20;;;;;;;18.30;15.63;;;;;;;18.42;71.05;96831.75;5093692;28;20423;-70
2021/09/27 01:03:46;;;;;;;15.60;13.90;;;;;;;18.38;70.83;96836.66;5092581;28;21125;-70
2021/09/27 01:06:25;;;;;;;17.40;14.07;;;;;;;18.60;70.12;96838.19;5094581;28;20431;-70
2021/09/27 01:08:58;;;;;;;14.70;13.20;;;;;;;18.62;69.66;96841.47;5094285;28;20178;-70
2021/09/27 01:11:40;;;;;;;16.80;13.40;;;;;;;18.69;69.27;96839.56;5093644;28;20432;-69
2021/09/27 01:14:21;;;;;;;15.10;13.50;;;;;;;18.53;69.22;96832.94;5092319;28;20447;-70
2021/09/27 01:16:59;;;;;;;16.47;12.90;;;;;;;18.46;69.76;96840.13;5092134;28;20490;-70
2021/09/27 01:19:27;;;;;;;15.70;13.53;;;;;;;18.48;69.64;96833.56;5094294;28;20455;-69
2021/09/27 01:22:01;;;;;;;15.03;13.10;;;;;;;18.58;69.21;96833.13;5093722;28;20412;-69
2021/09/27 01:24:49;;;;;;;14.20;12.80;;;;;;;18.68;68.66;96830.81;5076149;28;20585;-69
2021/09/27 01:27:31;;;;;;;14.93;12.60;;;;;;;18.44;69.70;96832.34;5093436;28;20419;-69
2021/09/27 01:30:12;;;;;;;19.83;14.03;;;;;;;18.48;69.89;96828.25;5098526;28;20440;-69
2021/09/27 01:32:44;;;;;;;16.27;13.17;;;;;;;18.82;68.60;96828.88;5105441;28;20463;-70
2021/09/27 01:35:49;;;;;;;17.37;13.97;;;;;;;19.00;67.81;96824.72;5102107;28;20531;-70
2021/09/27 01:38:41;;;;;;;17.97;13.10;;;;;;;19.03;67.42;96824.25;5102193;28;20759;-70
2021/09/27 01:41:32;;;;;;;18.00;13.40;;;;;;;19.09;67.31;96822.59;5100949;28;20424;-70
2021/09/27 01:44:16;;;;;;;17.50;12.80;;;;;;;19.12;66.81;96828.28;5097427;28;20873;-70
2021/09/27 01:46:54;;;;;;;16.27;13.30;;;;;;;19.14;66.86;96822.75;5100547;28;20412;-70
2021/09/27 01:49:23;;;;;;;14.80;12.40;;;;;;;19.13;66.78;96829.94;5085957;28;20464;-69
2021/09/27 01:51:54;;;;;;;14.60;12.50;;;;;;;19.15;66.59;96827.03;5090597;28;20432;-70
2021/09/27 01:54:33;;;;;;;14.97;12.53;;;;;;;19.10;67.02;96825.03;5090893;28;20477;-69
2021/09/27 01:57:27;;;;;;;13.90;12.43;;;;;;;19.15;66.78;96819.06;5091441;28;20488;-70
2021/09/27 01:59:52;;;;;;;13.80;12.30;;;;;;;19.14;66.71;96814.78;5091999;28;20412;-69
2021/09/27 02:02:55;;;;;;;16.40;13.10;;;;;;;19.01;67.03;96827.13;5090733;28;20436;-70
2021/09/27 02:05:37;;;;;;;14.07;12.20;;;;;;;19.05;66.89;96822.19;5084146;28;20189;-69
2021/09/27 02:08:06;;;;;;;13.60;12.20;;;;;;;19.08;66.57;96815.66;5070895;28;20459;-69
2021/09/27 02:10:45;;;;;;;13.57;12.10;;;;;;;19.03;66.58;96821.59;5091901;28;20427;-69
2021/09/27 02:13:18;;;;;;;13.80;12.40;;;;;;;19.00;66.56;96819.41;5091739;28;20467;-70
2021/09/27 02:15:52;;;;;;;13.70;11.87;;;;;;;18.98;66.43;96826.75;5090941;28;20419;-69
2021/09/27 02:18:25;;;;;;;13.17;11.77;;;;;;;18.96;66.37;96824.34;5083625;28;20456;-69
2021/09/27 02:20:57;;;;;;;15.00;12.60;;;;;;;18.92;66.62;96823.09;5091051;28;20516;-69
2021/09/27 02:23:36;;;;;;;13.80;12.00;;;;;;;18.90;66.54;96829.66;5091728;28;20450;-70
2021/09/27 02:26:01;;;;;;;14.97;12.90;;;;;;;18.92;66.42;96827.56;5090093;28;20732;-70
2021/09/27 02:28:28;;;;;;;13.27;11.97;;;;;;;18.86;66.51;96830.09;5092529;28;20408;-70
2021/09/27 02:30:53;;;;;;;13.90;12.40;;;;;;;18.84;66.54;96826.81;5091650;28;20242;-69
2021/09/27 02:33:33;;;;;;;15.10;12.40;;;;;;;18.78;66.71;96838.28;5090295;28;20467;-70
2021/09/27 02:36:26;;;;;;;14.97;12.17;;;;;;;18.77;67.03;96838.50;5090820;28;20197;-70
2021/09/27 02:39:01;;;;;;;12.97;11.67;;;;;;;18.76;67.16;96829.75;5091196;28;20439;-69
2021/09/27 02:41:40;;;;;;;15.30;12.20;;;;;;;18.76;67.06;96835.06;5092049;28;20422;-70
2021/09/27 02:44:07;;;;;;;14.17;12.60;;;;;;;18.79;67.05;96833.81;5090691;28;20439;-70
2021/09/27 02:46:33;;;;;;;14.97;12.63;;;;;;;18.79;67.14;96828.50;5091112;28;20553;-70
2021/09/27 02:49:12;;;;;;;13.20;11.53;;;;;;;18.82;67.15;96834.19;5090333;28;20515;-70
2021/09/27 02:51:40;;;;;;;14.40;12.87;;;;;;;18.87;66.85;96831.72;5091602;28;20539;-69
2021/09/27 02:54:07;;;;;;;15.60;14.00;;;;;;;18.92;66.93;96832.88;5091938;28;20440;-70
2021/09/27 02:56:51;;;;;;;14.73;12.50;;;;;;;18.93;66.77;96834.50;5090699;28;20439;-71
2021/09/27 02:59:38;;;;;;;19.17;14.37;;;;;;;18.91;66.96;96832.09;5091762;28;20464;-68
2021/09/27 03:02:13;;;;;;;14.77;12.77;;;;;;;18.92;66.80;96839.03;5089466;28;20482;-69
2021/09/27 03:04:53;;;;;;;19.23;13.50;;;;;;;18.82;67.18;96839.50;5091529;28;20468;-69
2021/09/27 03:07:54;;;;;;;14.90;13.13;;;;;;;18.93;66.91;96838.00;5091211;28;20418;-69
2021/09/27 03:10:45;;;;;;;17.13;13.07;;;;;;;18.95;66.83;96833.31;5074336;28;20446;-68
2021/09/27 03:13:39;;;;;;;14.60;12.87;;;;;;;18.93;67.01;96837.16;5090400;28;21049;-69
2021/09/27 03:17:03;;;;;;;13.83;12.33;;;;;;;19.01;66.83;96839.63;5090724;28;20450;-69
2021/09/27 03:19:51;;;;;;;13.73;11.97;;;;;;;19.02;66.41;96836.75;5032456;28;20436;-69
2021/09/27 03:22:29;;;;;;;13.83;12.30;;;;;;;19.10;66.30;96840.16;5046212;28;20447;-70
2021/09/27 03:25:10;;;;;;;15.90;12.83;;;;;;;19.10;66.22;96829.53;5090149;28;20422;-69
2021/09/27 03:27:52;;;;;;;13.70;12.20;;;;;;;19.04;66.31;96839.16;5066550;28;20420;-69
2021/09/27 03:30:26;;;;;;;14.23;12.50;;;;;;;19.09;66.40;96831.38;5088227;28;20432;-69
2021/09/27 03:33:03;;;;;;;19.10;13.03;;;;;;;19.08;66.19;96837.72;5063931;28;20467;-68
2021/09/27 03:36:06;;;;;;;15.77;12.10;;;;;;;19.12;66.31;96840.75;5084846;28;20419;-69
2021/09/27 03:38:55;;;;;;;13.33;11.57;;;;;;;19.15;65.99;96835.81;5070003;28;20413;-68
2021/09/27 03:41:26;;;;;;;15.00;12.77;;;;;;;19.14;66.00;96831.56;5079192;28;20551;-69
2021/09/27 03:44:34;;;;;;;13.77;12.17;;;;;;;19.16;66.03;96842.75;5076052;28;20432;-69
2021/09/27 03:47:08;;;;;;;13.40;12.00;;;;;;;19.19;66.04;96836.22;5079342;28;20493;-68
2021/09/27 03:49:39;;;;;;;14.10;12.67;;;;;;;19.19;65.89;96839.66;5082059;28;20456;-69
2021/09/27 03:52:15;;;;;;;15.10;12.87;;;;;;;19.18;65.78;96837.25;5080766;28;20503;-69
2021/09/27 03:54:53;;;;;;;14.37;12.03;;;;;;;19.18;66.04;96832.72;5050410;28;20775;-69
2021/09/27 03:57:32;;;;;;;15.87;12.90;;;;;;;19.19;66.05;96839.66;5059641;28;20518;-69
2021/09/27 04:00:33;;;;;;;15.60;13.60;;;;;;;19.18;65.92;96838.03;5093267;28;20470;-69
2021/09/27 04:03:07;;;;;;;14.13;12.67;;;;;;;19.21;65.89;96830.66;5073206;28;20455;-70
2021/09/27 04:05:47;;;;;;;14.90;11.50;;;;;;;19.20;65.87;96832.53;5083947;28;20408;-69
2021/09/27 04:08:21;;;;;;;16.00;12.33;;;;;;;19.22;65.79;96837.63;5066806;28;20431;-69
2021/09/27 04:10:56;;;;;;;14.53;12.97;;;;;;;19.21;65.79;96841.28;5075995;28;20879;-69
2021/09/27 04:13:49;;;;;;;15.73;12.60;;;;;;;19.19;65.71;96837.00;5072652;28;20464;-70
2021/09/27 04:16:20;;;;;;;14.20;12.70;;;;;;;19.21;65.82;96836.00;5080512;28;20455;-70
2021/09/27 04:18:56;;;;;;;14.13;11.80;;;;;;;19.21;65.77;96834.16;5086722;28;20935;-69
2021/09/27 04:21:47;;;;;;;22.27;16.50;;;;;;;19.14;65.88;96834.22;5058852;28;20424;-69
2021/09/27 04:24:31;;;;;;;19.70;14.23;;;;;;;19.14;65.76;96826.25;5088807;28;20490;-70
2021/09/27 04:27:08;;;;;;;16.63;12.70;;;;;;;19.11;65.84;96825.84;5080330;28;20871;-70
2021/09/27 04:29:42;;;;;;;15.10;13.50;;;;;;;19.07;66.16;96816.69;5078461;28;20484;-70
2021/09/27 04:32:17;;;;;;;18.70;13.10;;;;;;;18.97;66.10;96814.50;5083310;28;21001;-70
2021/09/27 04:35:02;;;;;;;19.60;12.63;;;;;;;18.80;66.83;96819.50;5068576;28;20526;-69
2021/09/27 04:37:28;;;;;;;16.40;13.13;;;;;;;18.73;66.89;96822.19;5078217;28;20429;-70
2021/09/27 04:39:54;;;;;;;17.03;12.83;;;;;;;18.70;66.80;96827.94;5087666;28;20442;-68
2021/09/27 04:42:27;;;;;;;18.70;13.43;;;;;;;18.65;67.07;96827.78;5093160;28;20439;-69
2021/09/27 04:45:16;;;;;;;16.47;13.13;;;;;;;18.60;67.08;96819.63;5095089;28;20656;-70
2021/09/27 04:48:11;;;;;;;16.73;14.00;;;;;;;18.55;67.36;96822.91;5093880;28;20495;-69
2021/09/27 04:51:00;;;;;;;21.37;13.70;;;;;;;18.48;67.37;96822.94;5099694;28;20452;-69
2021/09/27 04:53:41;;;;;;;22.20;13.30;;;;;;;18.42;67.60;96819.31;5100210;28;20841;-70
2021/09/27 04:56:13;;;;;;;15.53;12.90;;;;;;;18.41;67.63;96828.28;5104322;28;20415;-70
2021/09/27 04:59:13;;;;;;;17.03;14.27;;;;;;;18.30;68.09;96821.00;5094535;28;20516;-69
2021/09/27 05:01:44;;;;;;;17.50;13.77;;;;;;;18.25;67.97;96818.97;5090072;28;20430;-69
2021/09/27 05:04:47;;;;;;;18.20;13.43;;;;;;;18.19;68.78;96825.13;5092505;28;20463;-69
2021/09/27 05:07:50;;;;;;;18.63;13.73;;;;;;;18.13;69.05;96825.13;5092437;28;20420;-70
2021/09/27 05:10:23;;;;;;;22.93;14.60;;;;;;;18.03;69.19;96826.41;5092525;28;20914;-70
2021/09/27 05:12:54;;;;;;;15.77;12.93;;;;;;;18.04;68.68;96833.34;5090651;28;20467;-67
2021/09/27 05:15:42;;;;;;;15.37;12.80;;;;;;;17.93;69.43;96834.75;5093076;28;20416;-69
2021/09/27 05:18:56;;;;;;;17.47;13.70;;;;;;;17.88;69.55;96833.75;5092332;28;20427;-70
2021/09/27 05:22:03;;;;;;;22.67;15.03;;;;;;;17.86;69.62;96833.97;5050636;28;20428;-69
2021/09/27 05:24:59;;;;;;;19.17;14.20;;;;;;;17.86;69.43;96841.09;5088285;28;20411;-70
2021/09/27 05:27:25;;;;;;;21.43;14.40;;;;;;;17.82;69.36;96843.34;5085944;28;20423;-69
2021/09/27 05:30:16;;;;;;;19.67;15.07;;;;;;;17.80;69.63;96838.28;5092914;28;20454;-69
2021/09/27 05:33:07;;;;;;;19.70;14.10;;;;;;;17.74;69.80;96822.38;5086748;28;20209;-68
2021/09/27 05:35:47;;;;;;;20.23;15.37;;;;;;;17.66;70.10;96828.72;5087791;28;20431;-69
2021/09/27 05:38:26;;;;;;;25.30;15.27;;;;;;;17.79;70.24;96833.16;5093001;28;20415;-70
2021/09/27 05:41:10;;;;;;;18.70;14.93;;;;;;;18.06;69.58;96830.47;5093615;28;20424;-70
2021/09/27 05:43:48;;;;;;;20.13;15.27;;;;;;;18.22;69.27;96837.97;5087792;28;20442;-70
2021/09/27 05:46:32;;;;;;;22.93;15.27;;;;;;;18.32;68.87;96834.88;5084956;28;20423;-70
2021/09/27 05:49:03;;;;;;;21.83;15.13;;;;;;;18.26;68.61;96831.22;5092676;28;20878;-68
2021/09/27 05:51:50;;;;;;;23.53;14.97;;;;;;;18.69;68.76;96842.22;5090147;28;20420;-69
2021/09/27 05:54:36;;;;;;;29.60;14.23;;;;;;;19.06;67.61;96842.41;5084381;28;20762;-69
2021/09/27 05:57:02;;;;;;;26.40;15.60;;;;;;;19.42;66.33;96848.09;5092707;28;20526;-69
2021/09/27 05:59:48;;;;;;;31.37;14.40;;;;;;;19.76;65.21;96837.94;5092780;28;20499;-70
2021/09/27 06:02:48;;;;;;;28.37;13.67;;;;;;;19.92;62.59;96841.91;5083989;28;20181;-70
2021/09/27 06:05:25;;;;;;;19.80;14.73;;;;;;;19.88;62.89;96836.22;5092729;28;20890;-70
2021/09/27 06:07:58;;;;;;;20.30;13.07;;;;;;;19.67;63.03;96845.38;5091192;28;20522;-69
2021/09/27 06:10:46;;;;;;;15.10;13.50;;;;;;;19.49;63.34;96843.50;5090543;28;20495;-69
2021/09/27 06:13:21;;;;;;;22.47;14.20;;;;;;;19.30;64.05;96847.97;5091006;28;21015;-69
2021/09/27 06:15:55;;;;;;;16.57;12.80;;;;;;;19.39;63.62;96852.00;5092396;28;20784;-70
2021/09/27 06:18:45;;;;;;;15.80;13.50;;;;;;;19.35;63.67;96848.13;5090628;28;20427;-70
2021/09/27 06:21:22;;;;;;;17.50;13.63;;;;;;;19.41;63.90;96851.75;5092106;28;20562;-70
2021/09/27 06:24:07;;;;;;;18.47;14.20;;;;;;;19.40;63.93;96848.31;5091826;28;20447;-69
2021/09/27 06:26:36;;;;;;;15.40;13.20;;;;;;;19.51;63.60;96840.66;5092200;28;20419;-70
2021/09/27 06:29:08;;;;;;;16.10;12.67;;;;;;;19.67;63.25;96850.69;5088849;28;20466;-70
2021/09/27 06:31:38;;;;;;;16.60;13.30;;;;;;;19.62;63.20;96848.69;5085025;28;20424;-69
2021/09/27 06:34:15;;;;;;;13.83;12.10;;;;;;;19.79;63.02;96851.59;5089266;28;20934;-70
2021/09/27 06:36:42;;;;;;;19.43;12.20;;;;;;;19.68;63.05;96844.34;5090536;28;20948;-70
2021/09/27 06:39:15;;;;;;;13.20;11.27;;;;;;;19.57;63.29;96839.75;5090423;28;20914;-69
2021/09/27 06:41:42;;;;;;;15.27;11.50;;;;;;;19.66;63.37;96849.06;5091977;28;20510;-70
2021/09/27 06:44:07;;;;;;;18.10;11.53;;;;;;;19.68;62.99;96851.53;5090057;28;20815;-70
2021/09/27 06:46:33;;;;;;;12.37;11.13;;;;;;;19.57;63.42;96848.56;5091941;28;20535;-69
2021/09/27 06:48:59;;;;;;;12.53;10.83;;;;;;;19.77;62.99;96845.72;5088590;28;20188;-70
2021/09/27 06:51:25;;;;;;;11.97;10.53;;;;;;;19.96;62.64;96843.09;5091957;28;20760;-69
2021/09/27 06:53:51;;;;;;;13.37;11.47;;;;;;;20.07;61.84;96844.22;5091137;28;20511;-69
2021/09/27 06:56:16;;;;;;;14.83;11.10;;;;;;;20.54;60.65;96840.97;5091562;28;20181;-70
2021/09/27 06:58:42;;;;;;;13.27;10.63;;;;;;;20.74;59.57;96842.56;5091759;28;20182;-69
2021/09/27 07:01:07;;;;;;;11.63;10.33;;;;;;;20.87;59.31;96839.72;5090458;28;20242;-70
2021/09/27 07:03:33;;;;;;;13.97;11.00;;;;;;;20.78;59.38;96838.44;5086455;28;20243;-70
2021/09/27 07:05:59;;;;;;;26.97;11.20;;;;;;;20.37;60.75;96836.28;5090197;28;20213;-69
2021/09/27 07:08:25;;;;;;;16.57;12.50;;;;;;;20.70;59.92;96837.66;5091411;28;20620;-70
2021/09/27 07:10:52;;;;;;;14.83;10.93;;;;;;;20.57;59.87;96837.84;5091849;28;20420;-69
2021/09/27 07:13:18;;;;;;;11.87;9.50;;;;;;;20.58;60.04;96828.84;5091963;28;21068;-69
2021/09/27 07:15:44;;;;;;;11.10;9.80;;;;;;;20.29;61.14;96828.59;5091699;28;20435;-68
2021/09/27 07:18:10;;;;;;;14.30;9.63;;;;;;;20.56;60.74;96826.41;5091475;28;20407;-69
2021/09/27 07:20:36;;;;;;;10.07;8.60;;;;;;;20.67;59.84;96827.47;5093402;28;20778;-69
2021/09/27 07:23:02;;;;;;;12.60;8.90;;;;;;;20.91;59.58;96824.09;5092103;28;20600;-70
2021/09/27 07:25:31;;;;;;;10.70;9.60;;;;;;;20.86;59.22;96822.13;5091611;28;20528;-69
2021/09/27 07:27:58;;;;;;;12.20;10.00;;;;;;;20.65;60.01;96831.41;5089594;28;20443;-70
2021/09/27 07:30:24;;;;;;;11.00;8.83;;;;;;;20.90;59.16;96823.31;5090804;28;20510;-70
2021/09/27 07:32:50;;;;;;;8.70;7.90;;;;;;;21.10;58.69;96830.16;5085220;28;20467;-70
2021/09/27 07:35:19;;;;;;;11.20;9.17;;;;;;;21.30;57.70;96825.31;5093433;28;20424;-69
2021/09/27 07:37:45;;;;;;;18.90;9.67;;;;;;;21.29;57.83;96826.38;5053074;28;20436;-69
2021/09/27 07:40:15;;;;;;;9.87;8.87;;;;;;;21.52;57.28;96814.13;5072052;28;20988;-70
2021/09/27 07:42:41;;;;;;;8.67;7.87;;;;;;;21.53;57.05;96828.25;5072174;28;20198;-70
2021/09/27 07:45:08;;;;;;;11.33;8.10;;;;;;;21.79;56.57;96819.00;5089180;28;20434;-70
2021/09/27 07:47:34;;;;;;;10.07;8.40;;;;;;;21.33;57.23;96830.19;5091994;28;20438;-70
2021/09/27 07:49:59;;;;;;;8.70;7.57;;;;;;;20.94;58.81;96832.44;5092164;28;20792;-70
2021/09/27 07:52:25;;;;;;;8.70;7.90;;;;;;;21.14;58.20;96829.47;5094211;28;20225;-70
2021/09/27 07:54:51;;;;;;;10.73;7.70;;;;;;;21.60;56.73;96832.44;5092672;28;20205;-69
2021/09/27 07:57:18;;;;;;;8.13;7.33;;;;;;;21.53;56.75;96831.72;5095327;28;20387;-70
2021/09/27 07:59:44;;;;;;;8.13;7.27;;;;;;;21.62;56.95;96827.69;5092017;28;20787;-69
2021/09/27 08:02:09;;;;;;;16.50;7.63;;;;;;;22.10;55.41;96824.97;5084638;28;20420;-70
2021/09/27 08:04:35;;;;;;;8.50;6.70;;;;;;;21.24;58.03;96831.59;5092620;28;20190;-69
2021/09/27 08:07:01;;;;;;;7.90;7.20;;;;;;;21.12;58.07;96834.22;5092192;28;20182;-69
2021/09/27 08:09:27;;;;;;;8.47;7.57;;;;;;;21.09;58.21;96824.03;5089758;28;20793;-70
2021/09/27 08:11:53;;;;;;;7.67;6.93;;;;;;;21.53;56.53;96829.06;5090086;28;20428;-71
2021/09/27 08:14:18;;;;;;;7.70;6.30;;;;;;;21.67;56.53;96835.00;5091466;28;20208;-70
2021/09/27 08:16:44;;;;;;;8.57;7.37;;;;;;;21.39;56.89;96835.66;5088977;28;20327;-69
2021/09/27 08:19:10;;;;;;;7.07;6.37;;;;;;;21.65;56.84;96842.41;5092229;28;20217;-70
2021/09/27 08:21:36;;;;;;;7.53;6.43;;;;;;;21.06;58.35;96844.97;5056328;28;20186;-70
2021/09/27 08:24:01;;;;;;;9.13;6.40;;;;;;;21.51;57.25;96843.66;5090846;28;20428;-69
2021/09/27 08:26:27;;;;;;;7.13;6.00;;;;;;;22.31;55.28;96834.19;5069293;28;20175;-70
2021/09/27 08:28:52;;;;;;;9.07;5.93;;;;;;;22.65;54.09;96839.66;5088773;28;20492;-69
2021/09/27 08:31:21;;;;;;;6.10;5.50;;;;;;;22.94;53.30;96855.69;5087271;28;20175;-70
2021/09/27 08:33:48;;;;;;;9.17;6.00;;;;;;;22.54;53.73;96849.34;5086406;28;20202;-68
2021/09/27 08:36:17;;;;;;;7.97;6.00;;;;;;;21.98;55.06;96843.69;5082833;28;20810;-69
2021/09/27 08:38:44;;;;;;;6.17;5.40;;;;;;;22.04;55.31;96844.59;5092933;28;20444;-69
2021/09/27 08:41:45;;;;;;;7.10;5.77;;;;;;;21.95;55.62;96846.81;5097812;28;20416;-70
2021/09/27 08:44:32;;;;;;;6.33;5.40;;;;;;;22.05;54.81;96840.88;5087067;28;20435;-70
2021/09/27 08:47:08;;;;;;;7.20;5.83;;;;;;;22.64;53.45;96846.06;5093771;28;20914;-70
2021/09/27 08:49:40;;;;;;;5.60;5.00;;;;;;;22.91;52.55;96847.34;5097134;28;20427;-70
2021/09/27 08:52:07;;;;;;;5.30;4.80;;;;;;;22.37;53.32;96843.91;5095799;28;20451;-69
2021/09/27 08:54:34;;;;;;;7.40;5.10;;;;;;;22.97;51.99;96844.53;5094765;28;20598;-71
2021/09/27 08:57:18;;;;;;;6.03;5.43;;;;;;;22.68;52.33;96843.72;5093427;28;20847;-68
2021/09/27 09:00:22;;;;;;;4.53;3.97;;;;;;;23.09;51.44;96841.75;5094185;28;20415;-69
2021/09/27 09:02:53;;;;;;;5.63;4.30;;;;;;;23.24;50.60;96840.44;5087906;28;20972;-70
2021/09/27 09:05:32;;;;;;;4.90;4.50;;;;;;;22.64;53.27;96848.72;5094039;28;20757;-69
2021/09/27 09:08:07;;;;;;;6.07;5.33;;;;;;;22.97;51.55;96836.50;5092053;28;20844;-70
2021/09/27 09:10:37;;;;;;;7.93;4.67;;;;;;;23.43;50.23;96841.00;5093284;28;20941;-70
2021/09/27 09:13:04;;;;;;;8.10;5.07;;;;;;;23.50;50.30;96838.16;5093031;28;21069;-69
2021/09/27 09:15:31;;;;;;;4.53;4.13;;;;;;;23.91;49.25;96834.19;5075479;28;20488;-68
2021/09/27 09:18:17;;;;;;;9.53;5.10;;;;;;;24.16;48.50;96824.09;5094485;28;20427;-69
2021/09/27 09:20:44;;;;;;;5.50;4.47;;;;;;;24.24;48.11;96837.03;5100491;28;20435;-70
2021/09/27 09:23:20;;;;;;;4.80;4.30;;;;;;;24.32;47.85;96835.78;5112993;28;20515;-70
2021/09/27 09:25:45;;;;;;;7.97;4.33;;;;;;;23.84;47.68;96838.09;5110736;28;20412;-71
2021/09/27 09:28:11;;;;;;;4.33;3.93;;;;;;;23.66;48.73;96831.16;5095207;28;20418;-69
2021/09/27 09:30:44;;;;;;;4.50;4.07;;;;;;;23.61;48.79;96823.88;5092929;28;20178;-69
2021/09/27 09:33:36;;;;;;;5.67;4.10;;;;;;;23.55;48.98;96830.22;5086864;28;20276;-69
2021/09/27 09:36:03;;;;;;;6.00;4.40;;;;;;;22.54;51.42;96824.50;5101045;28;20436;-69
2021/09/27 09:38:33;;;;;;;5.30;3.90;;;;;;;22.74;50.68;96825.94;5113816;28;20418;-69
2021/09/27 09:40:58;;;;;;;4.93;4.50;;;;;;;22.89;49.94;96825.38;5113936;28;20431;-70
2021/09/27 09:43:27;;;;;;;4.23;3.93;;;;;;;23.27;49.48;96830.06;5105339;28;20525;-69
2021/09/27 09:46:08;;;;;;;4.03;3.73;;;;;;;23.20;49.02;96817.91;5093505;28;20182;-70
2021/09/27 09:48:35;;;;;;;4.60;4.20;;;;;;;24.08;47.03;96826.13;5081802;28;20420;-70
2021/09/27 09:51:23;;;;;;;4.20;3.80;;;;;;;24.23;46.83;96824.72;5092051;28;20412;-70
2021/09/27 09:54:00;;;;;;;4.63;4.23;;;;;;;22.99;49.74;96830.91;5091693;28;20460;-69
2021/09/27 09:56:32;;;;;;;5.00;4.50;;;;;;;23.16;49.89;96829.06;5093097;28;20408;-70
2021/09/27 09:58:58;;;;;;;5.20;3.30;;;;;;;23.43;49.03;96823.09;5091304;28;20761;-69
2021/09/27 10:01:32;;;;;;;4.43;3.50;;;;;;;23.85;47.95;96821.81;5087797;28;20459;-71
2021/09/27 10:04:06;;;;;;;4.33;3.93;;;;;;;24.53;46.53;96815.41;5088732;28;20208;-70
2021/09/27 10:07:00;;;;;;;5.00;3.67;;;;;;;24.90;44.75;96822.78;5092986;28;20434;-70
2021/09/27 10:09:30;;;;;;;4.40;4.07;;;;;;;25.26;45.04;96820.38;5083776;28;20424;-70
2021/09/27 10:12:00;;;;;;;4.50;3.77;;;;;;;24.46;45.81;96815.59;5092224;28;20515;-68
2021/09/27 10:14:28;;;;;;;5.00;3.50;;;;;;;25.18;44.44;96815.50;5091384;28;20444;-69
2021/09/27 10:16:57;;;;;;;4.43;4.00;;;;;;;24.46;45.42;96812.94;5092721;28;20416;-70
2021/09/27 10:19:32;;;;;;;4.03;3.53;;;;;;;24.89;44.51;96817.66;5090814;28;20421;-69
2021/09/27 10:22:08;;;;;;;4.80;3.50;;;;;;;25.57;43.08;96809.09;5092127;28;20419;-67
2021/09/27 10:24:39;;;;;;;4.57;3.57;;;;;;;26.03;40.61;96805.84;5091971;28;20519;-70
2021/09/27 10:27:41;;;;;;;4.30;3.27;;;;;;;25.81;41.64;96819.41;5092647;28;20514;-68
2021/09/27 10:30:16;;;;;;;3.90;3.07;;;;;;;25.85;40.54;96813.25;5091339;28;20428;-69
2021/09/27 10:32:50;;;;;;;3.70;2.90;;;;;;;25.56;41.74;96816.34;5082764;28;20830;-70
2021/09/27 10:35:24;;;;;;;2.80;2.60;;;;;;;26.37;39.90;96810.81;5083871;28;20501;-69
2021/09/27 10:37:54;;;;;;;3.43;3.13;;;;;;;26.00;39.02;96809.88;5092069;28;20423;-70
2021/09/27 10:40:20;;;;;;;2.87;2.67;;;;;;;25.26;39.68;96823.06;5090836;28;20428;-69
2021/09/27 10:42:48;;;;;;;2.73;2.53;;;;;;;25.81;39.08;96819.41;5091117;28;20458;-69
2021/09/27 10:45:16;;;;;;;3.10;2.80;;;;;;;26.17;38.22;96807.00;5092224;28;20178;-69
2021/09/27 10:47:46;;;;;;;2.93;2.63;;;;;;;25.61;40.33;96815.56;5090774;28;20416;-69
2021/09/27 10:50:46;;;;;;;8.40;3.67;;;;;;;25.23;41.28;96818.22;5088140;28;20416;-70
2021/09/27 10:53:16;;;;;;;3.50;2.87;;;;;;;25.50;40.42;96814.69;5091978;28;20467;-69
2021/09/27 10:56:09;;;;;;;3.20;2.63;;;;;;;25.25;40.50;96813.41;5092936;28;20458;-70
2021/09/27 10:58:47;;;;;;;3.37;2.90;;;;;;;26.36;39.07;96814.56;5086353;28;20439;-69
2021/09/27 11:01:35;;;;;;;4.03;2.67;;;;;;;26.59;38.53;96807.94;5088160;28;20454;-69
2021/09/27 11:04:00;;;;;;;4.03;2.50;;;;;;;27.01;37.57;96813.41;5090157;28;20531;-69
2021/09/27 11:06:41;;;;;;;3.20;2.87;;;;;;;27.03;37.69;96806.66;5090234;28;20522;-69
2021/09/27 11:09:24;;;;;;;2.93;2.63;;;;;;;27.30;37.21;96802.91;5088666;28;20208;-68
2021/09/27 11:12:25;;;;;;;3.10;2.80;;;;;;;27.73;36.23;96792.59;5089608;28;20910;-70
2021/09/27 11:15:06;;;;;;;3.93;2.60;;;;;;;27.04;36.77;96796.72;5090143;28;20764;-69
2021/09/27 11:17:40;;;;;;;2.40;2.10;;;;;;;27.33;37.14;96788.91;5091558;28;20460;-70
2021/09/27 11:20:16;;;;;;;6.53;2.50;;;;;;;27.91;35.63;96782.34;5091407;28;20427;-69
2021/09/27 11:23:22;;;;;;;5.40;3.00;;;;;;;28.25;35.07;96778.97;5091078;28;20935;-69
2021/09/27 11:26:07;;;;;;;2.10;2.00;;;;;;;27.54;36.28;96778.13;5086934;28;20925;-70
2021/09/27 11:28:49;;;;;;;3.63;3.33;;;;;;;27.96;35.21;96778.81;5085155;28;20545;-70
2021/09/27 11:31:31;;;;;;;3.90;3.27;;;;;;;27.71;35.88;96781.34;5074183;28;20435;-70
2021/09/27 11:34:00;;;;;;;6.87;3.13;;;;;;;27.81;35.52;96777.00;5090568;28;20973;-72
2021/09/27 11:36:34;;;;;;;3.63;2.63;;;;;;;27.84;35.34;96779.16;5090122;28;20474;-71
2021/09/27 11:39:05;;;;;;;2.80;2.13;;;;;;;27.08;36.46;96776.28;5089972;28;20416;-69
2021/09/27 11:41:33;;;;;;;2.23;2.07;;;;;;;27.09;36.55;96775.22;5085868;28;20423;-68
2021/09/27 11:44:13;;;;;;;2.83;2.63;;;;;;;27.01;36.58;96773.06;5090148;28;20451;-69
2021/09/27 11:46:42;;;;;;;3.77;2.70;;;;;;;27.49;35.76;96772.75;5091632;28;20442;-69
2021/09/27 11:49:31;;;;;;;2.40;2.30;;;;;;;27.31;36.12;96766.84;5090406;28;20932;-70
2021/09/27 11:52:21;;;;;;;9.63;2.37;;;;;;;27.23;36.53;96773.59;5091672;28;20458;-69
2021/09/27 11:54:54;;;;;;;3.30;2.40;;;;;;;27.28;36.33;96770.09;5091529;28;20480;-69
2021/09/27 11:57:40;;;;;;;2.30;2.20;;;;;;;27.79;35.09;96768.38;5091106;28;20416;-68
2021/09/27 12:00:11;;;;;;;5.53;2.00;;;;;;;27.90;35.44;96769.94;5089688;28;20431;-67
2021/09/27 12:02:45;;;;;;;2.87;2.40;;;;;;;27.08;36.47;96774.41;5082888;28;20439;-69
2021/09/27 12:05:23;;;;;;;2.70;2.50;;;;;;;27.03;36.78;96777.09;5071901;28;20419;-68